Terminal Aerodrome Forecast
Issued by NWS

Home | Current Version | Previous Version | Graphics & Text | Print | Product List | Glossary On
Versions: 1 2 3 4 5 6 7 8 9 10 11 12 13 14 15 16
000
FTUS43 KMPX 201700
TAFRNH
TAF
KRNH 201720Z 2018/2118 29011G17KT P6SM BKN045
     FM202200 29010KT 6SM -SHRA BKN050 OVC100
      TEMPO 2023/2101 2SM TSRA OVC030CB
     FM210300 30012G19KT 6SM -RA SCT040 OVC060
     FM210600 31009KT P6SM SCT070
      TEMPO 2110/2114 BKN020=

USA.gov is the U.S. government's official web portal to all federal, state and local government web resources and services.